createdAt,value
2018-04-02T00:00:24.005Z,1005.78
2018-04-02T00:01:23.996Z,1005.77
2018-04-02T00:02:23.987Z,1005.76
2018-04-02T00:03:23.977Z,1005.76
2018-04-02T00:04:23.967Z,1005.73
2018-04-02T00:05:23.956Z,1005.74
2018-04-02T00:06:23.946Z,1005.72
2018-04-02T00:07:23.934Z,1005.73
2018-04-02T00:08:23.925Z,1005.75
2018-04-02T00:09:23.915Z,1005.77
2018-04-02T00:10:23.906Z,1005.74
2018-04-02T00:11:23.951Z,1005.72
2018-04-02T00:12:23.890Z,1005.71
2018-04-02T00:13:23.877Z,1005.72
2018-04-02T00:14:23.865Z,1005.74
2018-04-02T00:15:23.857Z,1005.73
2018-04-02T00:16:23.891Z,1005.70
2018-04-02T00:17:23.838Z,1005.72
2018-04-02T00:18:23.827Z,1005.71
2018-04-02T00:19:23.818Z,1005.76
2018-04-02T00:20:23.813Z,1005.74
2018-04-02T00:21:23.804Z,1005.79
2018-04-02T00:22:23.782Z,1005.72
2018-04-02T00:23:23.773Z,1005.70
2018-04-02T00:24:23.766Z,1005.70
2018-04-02T00:25:23.757Z,1005.70
2018-04-02T00:26:23.747Z,1005.65
2018-04-02T00:27:23.737Z,1005.67
2018-04-02T00:28:23.723Z,1005.66
2018-04-02T00:29:23.712Z,1005.67
2018-04-02T00:30:23.706Z,1005.67
2018-04-02T00:31:23.697Z,1005.65
2018-04-02T00:32:23.686Z,1005.68
2018-04-02T00:33:23.709Z,1005.72
2018-04-02T00:34:23.665Z,1005.68
2018-04-02T00:35:23.653Z,1005.67
2018-04-02T00:36:23.652Z,1005.70
2018-04-02T00:37:23.635Z,1005.69
2018-04-02T00:38:23.624Z,1005.66
2018-04-02T00:39:23.614Z,1005.71
2018-04-02T00:40:23.599Z,1005.71
2018-04-02T00:41:23.590Z,1005.71
2018-04-02T00:42:23.582Z,1005.72
2018-04-02T00:43:23.573Z,1005.68
2018-04-02T00:44:23.562Z,1005.69
2018-04-02T00:45:23.553Z,1005.70
2018-04-02T00:46:23.541Z,1005.70
2018-04-02T00:47:23.533Z,1005.67
2018-04-02T00:48:23.526Z,1005.66
2018-04-02T00:49:23.513Z,1005.66
2018-04-02T00:50:23.504Z,1005.66
2018-04-02T00:51:23.495Z,1005.61
2018-04-02T00:52:23.484Z,1005.63
2018-04-02T00:53:23.469Z,1005.63
2018-04-02T00:54:23.461Z,1005.60
2018-04-02T00:55:23.449Z,1005.60
2018-04-02T00:56:23.438Z,1005.61
2018-04-02T00:57:23.430Z,1005.58
2018-04-02T00:58:23.421Z,1005.61
2018-04-02T00:59:23.410Z,1005.57
2018-04-02T01:00:23.401Z,1005.56
2018-04-02T01:01:23.387Z,1005.54
2018-04-02T01:02:23.378Z,1005.52
2018-04-02T01:03:23.371Z,1005.55
2018-04-02T01:04:23.360Z,1005.55
2018-04-02T01:05:23.422Z,1005.56
2018-04-02T01:06:23.344Z,1005.59
2018-04-02T01:07:23.333Z,1005.57
2018-04-02T01:08:23.316Z,1005.56
2018-04-02T01:09:23.306Z,1005.58
2018-04-02T01:10:23.301Z,1005.56
2018-04-02T01:11:23.288Z,1005.59
2018-04-02T01:12:23.284Z,1005.57
2018-04-02T01:13:23.269Z,1005.61
2018-04-02T01:14:23.258Z,1005.59
2018-04-02T01:15:23.245Z,1005.61
2018-04-02T01:16:23.234Z,1005.61
2018-04-02T01:17:23.223Z,1005.60
2018-04-02T01:18:23.220Z,1005.61
2018-04-02T01:19:23.205Z,1005.61
2018-04-02T01:20:23.197Z,1005.61
2018-04-02T01:21:23.188Z,1005.61
2018-04-02T01:22:23.174Z,1005.57
2018-04-02T01:23:23.163Z,1005.59
2018-04-02T01:24:23.157Z,1005.61
2018-04-02T01:25:23.147Z,1005.59
2018-04-02T01:26:23.136Z,1005.59
2018-04-02T01:27:23.123Z,1005.60
2018-04-02T01:28:23.116Z,1005.57
2018-04-02T01:29:23.102Z,1005.59
2018-04-02T01:30:23.094Z,1005.54
2018-04-02T01:31:23.080Z,1005.53
2018-04-02T01:32:23.078Z,1005.52
2018-04-02T01:33:23.062Z,1005.53
2018-04-02T01:34:23.053Z,1005.51
2018-04-02T01:35:23.040Z,1005.50
2018-04-02T01:36:23.029Z,1005.48
2018-04-02T01:37:23.019Z,1005.50
2018-04-02T01:38:25.746Z,1005.45
2018-04-02T01:39:23.002Z,1005.43
2018-04-02T01:40:22.995Z,1005.42
2018-04-02T01:41:22.977Z,1005.45
2018-04-02T01:42:22.969Z,1005.42
2018-04-02T01:43:22.965Z,1005.45
2018-04-02T01:44:22.951Z,1005.47
2018-04-02T01:45:22.942Z,1005.42
2018-04-02T01:46:22.951Z,1005.42
2018-04-02T01:47:22.922Z,1005.42
2018-04-02T01:48:22.932Z,1005.41
2018-04-02T01:49:22.899Z,1005.39
2018-04-02T01:50:22.886Z,1005.37
2018-04-02T01:51:22.878Z,1005.39
2018-04-02T01:52:22.871Z,1005.40
2018-04-02T01:53:22.860Z,1005.35
2018-04-02T01:54:22.851Z,1005.38
2018-04-02T01:55:22.840Z,1005.35
2018-04-02T01:56:22.825Z,1005.34
2018-04-02T01:57:22.815Z,1005.31
2018-04-02T01:58:22.807Z,1005.31
2018-04-02T01:59:22.802Z,1005.33
2018-04-02T02:00:22.789Z,1005.37
2018-04-02T02:01:22.778Z,1005.30
2018-04-02T02:02:22.764Z,1005.31
2018-04-02T02:03:22.758Z,1005.31
2018-04-02T02:04:23.737Z,1005.33
2018-04-02T02:05:22.738Z,1005.30
2018-04-02T02:06:22.731Z,1005.29
2018-04-02T02:07:22.720Z,1005.32
2018-04-02T02:08:22.706Z,1005.30
2018-04-02T02:09:22.695Z,1005.32
2018-04-02T02:10:22.692Z,1005.32
2018-04-02T02:11:22.676Z,1005.29
2018-04-02T02:12:22.670Z,1005.29
2018-04-02T02:13:22.659Z,1005.26
2018-04-02T02:14:22.647Z,1005.28
2018-04-02T02:15:22.638Z,1005.25
2018-04-02T02:16:22.627Z,1005.24
2018-04-02T02:17:22.617Z,1005.22
2018-04-02T02:18:22.603Z,1005.24
2018-04-02T02:19:22.593Z,1005.25
2018-04-02T02:20:22.584Z,1005.23
2018-04-02T02:21:22.574Z,1005.23
2018-04-02T02:22:22.570Z,1005.22
2018-04-02T02:23:22.560Z,1005.17
2018-04-02T02:24:22.545Z,1005.20
2018-04-02T02:25:22.532Z,1005.19
2018-04-02T02:26:22.526Z,1005.15
2018-04-02T02:27:22.513Z,1005.14
2018-04-02T02:28:22.508Z,1005.10
2018-04-02T02:29:22.502Z,1005.11
2018-04-02T02:30:22.486Z,1005.10
2018-04-02T02:31:22.478Z,1005.11
2018-04-02T02:32:22.468Z,1005.12
2018-04-02T02:33:22.454Z,1005.08
2018-04-02T02:34:22.446Z,1005.10
2018-04-02T02:35:22.440Z,1005.10
2018-04-02T02:36:22.429Z,1005.09
2018-04-02T02:37:22.416Z,1005.04
2018-04-02T02:38:22.409Z,1005.06
2018-04-02T02:39:22.395Z,1005.08
2018-04-02T02:40:22.387Z,1005.07
2018-04-02T02:41:22.374Z,1005.01
2018-04-02T02:42:22.374Z,1004.98
2018-04-02T02:43:22.358Z,1005.02
2018-04-02T02:44:22.347Z,1004.96
2018-04-02T02:45:22.336Z,1004.94
2018-04-02T02:46:22.328Z,1004.96
2018-04-02T02:47:22.312Z,1004.94
2018-04-02T02:48:22.305Z,1004.94
2018-04-02T02:49:22.297Z,1004.94
2018-04-02T02:50:22.288Z,1004.95
2018-04-02T02:51:22.275Z,1004.90
2018-04-02T02:52:22.266Z,1004.94
2018-04-02T02:53:22.258Z,1004.94
2018-04-02T02:54:22.246Z,1004.94
2018-04-02T02:55:22.234Z,1004.94
2018-04-02T02:56:22.229Z,1004.92
2018-04-02T02:57:22.215Z,1004.98
2018-04-02T02:58:22.202Z,1004.99
2018-04-02T02:59:22.204Z,1004.98
2018-04-02T03:00:22.184Z,1004.97
2018-04-02T03:01:22.170Z,1004.97
2018-04-02T03:02:22.160Z,1004.97
2018-04-02T03:03:22.158Z,1004.96
2018-04-02T03:04:22.148Z,1004.96
2018-04-02T03:05:22.137Z,1004.96
2018-04-02T03:06:22.126Z,1004.97
2018-04-02T03:07:22.114Z,1004.92
2018-04-02T03:08:22.101Z,1004.90
2018-04-02T03:09:22.095Z,1004.88
2018-04-02T03:10:22.103Z,1004.88
2018-04-02T03:11:22.076Z,1004.92
2018-04-02T03:12:22.064Z,1004.87
2018-04-02T03:13:22.058Z,1004.84
2018-04-02T03:14:22.044Z,1004.83
2018-04-02T03:15:22.041Z,1004.85
2018-04-02T03:16:22.024Z,1004.84
2018-04-02T03:17:22.014Z,1004.84
2018-04-02T03:18:21.999Z,1004.85
2018-04-02T03:19:21.993Z,1004.83
2018-04-02T03:20:21.980Z,1004.86
2018-04-02T03:21:21.968Z,1004.83
2018-04-02T03:22:21.958Z,1004.85
2018-04-02T03:23:21.952Z,1004.85
2018-04-02T03:24:21.947Z,1004.85
2018-04-02T03:25:21.931Z,1004.84
2018-04-02T03:26:21.920Z,1004.82
2018-04-02T03:27:21.911Z,1004.79
2018-04-02T03:28:21.899Z,1004.80
2018-04-02T03:29:21.891Z,1004.80
2018-04-02T03:30:21.878Z,1004.82
2018-04-02T03:31:21.873Z,1004.83
2018-04-02T03:32:21.862Z,1004.80
2018-04-02T03:33:21.852Z,1004.82
2018-04-02T03:34:21.840Z,1004.83
2018-04-02T03:35:21.827Z,1004.85
2018-04-02T03:36:21.819Z,1004.83
2018-04-02T03:37:21.817Z,1004.84
2018-04-02T03:38:21.801Z,1004.81
2018-04-02T03:39:21.795Z,1004.83
2018-04-02T03:40:21.779Z,1004.84
2018-04-02T03:41:21.771Z,1004.83
2018-04-02T03:42:21.765Z,1004.82
2018-04-02T03:43:21.747Z,1004.84
2018-04-02T03:44:21.741Z,1004.82
2018-04-02T03:45:21.728Z,1004.79
2018-04-02T03:46:21.720Z,1004.82
2018-04-02T03:47:21.711Z,1004.75
2018-04-02T03:48:21.695Z,1004.81
2018-04-02T03:49:21.685Z,1004.76
2018-04-02T03:50:21.677Z,1004.71
2018-04-02T03:51:21.669Z,1004.74
2018-04-02T03:52:21.657Z,1004.70
2018-04-02T03:53:21.647Z,1004.68
2018-04-02T03:54:21.640Z,1004.65
2018-04-02T03:55:21.624Z,1004.66
2018-04-02T03:56:21.617Z,1004.66
2018-04-02T03:57:21.608Z,1004.63
2018-04-02T03:58:21.600Z,1004.63
2018-04-02T03:59:21.589Z,1004.58
2018-04-02T04:00:21.578Z,1004.62
2018-04-02T04:01:21.564Z,1004.64
2018-04-02T04:02:21.554Z,1004.64
2018-04-02T04:03:21.543Z,1004.62
2018-04-02T04:04:21.538Z,1004.60
2018-04-02T04:05:21.526Z,1004.62
2018-04-02T04:06:21.517Z,1004.62
2018-04-02T04:07:21.509Z,1004.64
2018-04-02T04:08:21.497Z,1004.64
2018-04-02T04:09:21.481Z,1004.65
2018-04-02T04:10:21.471Z,1004.63
2018-04-02T04:11:21.466Z,1004.62
2018-04-02T04:12:21.456Z,1004.66
2018-04-02T04:13:21.445Z,1004.64
2018-04-02T04:14:21.435Z,1004.66
2018-04-02T04:15:21.424Z,1004.65
2018-04-02T04:16:21.410Z,1004.68
2018-04-02T04:17:21.398Z,1004.64
2018-04-02T04:18:21.394Z,1004.62
2018-04-02T04:19:21.382Z,1004.67
2018-04-02T04:20:21.373Z,1004.65
2018-04-02T04:21:21.364Z,1004.64
2018-04-02T04:22:21.355Z,1004.64
2018-04-02T04:23:21.345Z,1004.69
2018-04-02T04:24:21.331Z,1004.68
2018-04-02T04:25:21.318Z,1004.66
2018-04-02T04:26:21.310Z,1004.66
2018-04-02T04:27:21.301Z,1004.64
2018-04-02T04:28:21.292Z,1004.67
2018-04-02T04:29:21.281Z,1004.66
2018-04-02T04:30:21.271Z,1004.62
2018-04-02T04:31:21.257Z,1004.63
2018-04-02T04:32:21.271Z,1004.59
2018-04-02T04:33:21.241Z,1004.59
2018-04-02T04:34:21.230Z,1004.59
2018-04-02T04:35:21.220Z,1004.58
2018-04-02T04:36:21.211Z,1004.59
2018-04-02T04:37:21.198Z,1004.54
2018-04-02T04:38:21.188Z,1004.56
2018-04-02T04:39:21.176Z,1004.57
2018-04-02T04:40:21.241Z,1004.57
2018-04-02T04:41:21.154Z,1004.58
2018-04-02T04:42:21.152Z,1004.59
2018-04-02T04:43:21.138Z,1004.60
2018-04-02T04:44:21.131Z,1004.60
2018-04-02T04:45:21.116Z,1004.57
2018-04-02T04:46:21.111Z,1004.57
2018-04-02T04:47:21.092Z,1004.54
2018-04-02T04:48:21.088Z,1004.55
2018-04-02T04:49:21.077Z,1004.58
2018-04-02T04:50:21.064Z,1004.56
2018-04-02T04:51:21.052Z,1004.52
2018-04-02T04:52:21.043Z,1004.54
2018-04-02T04:53:21.034Z,1004.50
2018-04-02T04:54:21.027Z,1004.50
2018-04-02T04:55:21.015Z,1004.51
2018-04-02T04:56:21.005Z,1004.48
2018-04-02T04:57:21.002Z,1004.49
2018-04-02T04:58:20.981Z,1004.49
2018-04-02T04:59:20.996Z,1004.44
2018-04-02T05:00:20.964Z,1004.43
2018-04-02T05:01:20.952Z,1004.44
2018-04-02T05:02:20.944Z,1004.46
2018-04-02T05:03:20.933Z,1004.46
2018-04-02T05:04:20.923Z,1004.46
2018-04-02T05:05:20.946Z,1004.47
2018-04-02T05:06:20.900Z,1004.46
2018-04-02T05:07:20.891Z,1004.47
2018-04-02T05:08:20.881Z,1004.47
2018-04-02T05:09:20.874Z,1004.45
2018-04-02T05:10:20.860Z,1004.43
2018-04-02T05:11:20.847Z,1004.46
2018-04-02T05:12:20.860Z,1004.42
2018-04-02T05:13:20.824Z,1004.40
2018-04-02T05:14:20.816Z,1004.38
2018-04-02T05:15:20.808Z,1004.38
2018-04-02T05:16:20.798Z,1004.37
2018-04-02T05:17:20.785Z,1004.38
2018-04-02T05:18:20.776Z,1004.38
2018-04-02T05:19:20.762Z,1004.38
2018-04-02T05:20:20.752Z,1004.39
2018-04-02T05:21:20.739Z,1004.37
2018-04-02T05:22:20.730Z,1004.42
2018-04-02T05:23:20.722Z,1004.43
2018-04-02T05:24:20.713Z,1004.41
2018-04-02T05:25:20.703Z,1004.42
2018-04-02T05:26:20.692Z,1004.42
2018-04-02T05:27:20.679Z,1004.40
2018-04-02T05:28:20.669Z,1004.41
2018-04-02T05:29:20.661Z,1004.36
2018-04-02T05:30:20.650Z,1004.38
2018-04-02T05:31:20.640Z,1004.41
2018-04-02T05:32:20.631Z,1004.38
2018-04-02T05:33:20.617Z,1004.37
2018-04-02T05:34:20.604Z,1004.36
2018-04-02T05:35:20.597Z,1004.37
2018-04-02T05:36:20.588Z,1004.34
2018-04-02T05:37:20.582Z,1004.34
2018-04-02T05:38:20.565Z,1004.32
2018-04-02T05:39:20.553Z,1004.35
2018-04-02T05:40:20.550Z,1004.34
2018-04-02T05:41:20.532Z,1004.34
2018-04-02T05:42:20.524Z,1004.33
2018-04-02T05:43:20.528Z,1004.36
2018-04-02T05:44:20.505Z,1004.32
2018-04-02T05:45:20.543Z,1004.37
2018-04-02T05:46:20.485Z,1004.34
2018-04-02T05:47:20.472Z,1004.37
2018-04-02T05:48:20.461Z,1004.35
2018-04-02T05:49:20.450Z,1004.38
2018-04-02T05:50:20.438Z,1004.33
2018-04-02T05:51:20.432Z,1004.34
2018-04-02T05:52:20.421Z,1004.36
2018-04-02T05:53:20.415Z,1004.35
2018-04-02T05:54:20.399Z,1004.37
2018-04-02T05:55:20.385Z,1004.33
2018-04-02T05:56:20.374Z,1004.33
2018-04-02T05:57:20.368Z,1004.32
2018-04-02T05:58:20.357Z,1004.31
2018-04-02T05:59:20.349Z,1004.26
2018-04-02T06:00:20.337Z,1004.26
2018-04-02T06:01:20.321Z,1004.28
2018-04-02T06:02:20.313Z,1004.30
2018-04-02T06:03:20.302Z,1004.28
2018-04-02T06:04:20.295Z,1004.27
2018-04-02T06:05:20.285Z,1004.29
2018-04-02T06:06:20.274Z,1004.30
2018-04-02T06:07:20.267Z,1004.30
2018-04-02T06:08:20.252Z,1004.32
2018-04-02T06:09:20.239Z,1004.33
2018-04-02T06:10:20.232Z,1004.32
2018-04-02T06:11:20.226Z,1004.24
2018-04-02T06:12:20.209Z,1004.24
2018-04-02T06:13:20.205Z,1004.22
2018-04-02T06:14:20.192Z,1004.17
2018-04-02T06:15:20.182Z,1004.17
2018-04-02T06:16:20.171Z,1004.15
2018-04-02T06:17:20.157Z,1004.08
2018-04-02T06:18:20.149Z,1004.04
2018-04-02T06:19:20.137Z,1004.05
2018-04-02T06:20:20.131Z,1004.06
2018-04-02T06:21:20.120Z,1004.02
2018-04-02T06:22:20.118Z,1004.05
2018-04-02T06:23:20.101Z,1004.09
2018-04-02T06:24:20.090Z,1004.04
2018-04-02T06:25:20.079Z,1004.10
2018-04-02T06:26:20.067Z,1004.08
2018-04-02T06:27:20.060Z,1004.00
2018-04-02T06:28:20.046Z,1004.02
2018-04-02T06:29:20.043Z,1003.98
2018-04-02T06:30:20.030Z,1004.03
2018-04-02T06:31:20.014Z,1004.03
2018-04-02T06:32:20.006Z,1004.05
2018-04-02T06:33:19.996Z,1004.03
2018-04-02T06:34:19.991Z,1004.05
2018-04-02T06:35:19.982Z,1004.06
2018-04-02T06:36:19.970Z,1004.07
2018-04-02T06:37:19.959Z,1004.04
2018-04-02T06:38:19.946Z,1004.00
2018-04-02T06:39:19.937Z,1003.98
2018-04-02T06:40:19.938Z,1003.99
2018-04-02T06:41:19.920Z,1003.95
2018-04-02T06:42:19.910Z,1003.95
2018-04-02T06:43:19.902Z,1003.95
2018-04-02T06:44:19.889Z,1003.96
2018-04-02T06:45:19.877Z,1004.00
2018-04-02T06:46:19.878Z,1003.96
2018-04-02T06:47:19.885Z,1003.97
2018-04-02T06:48:19.855Z,1003.95
2018-04-02T06:49:19.850Z,1003.96
2018-04-02T06:50:19.832Z,1003.98
2018-04-02T06:51:19.824Z,1003.99
2018-04-02T06:52:19.814Z,1004.01
2018-04-02T06:53:19.802Z,1003.99
2018-04-02T06:54:19.792Z,1003.97
2018-04-02T06:55:19.783Z,1003.98
2018-04-02T06:56:19.772Z,1003.98
2018-04-02T06:57:19.773Z,1003.95
2018-04-02T06:58:19.761Z,1003.97
2018-04-02T06:59:19.746Z,1003.96
2018-04-02T07:00:19.737Z,1003.97
2018-04-02T07:01:19.729Z,1003.96
2018-04-02T07:02:19.721Z,1003.94
2018-04-02T07:03:19.711Z,1003.94
2018-04-02T07:04:19.702Z,1003.94
2018-04-02T07:05:19.691Z,1003.93
2018-04-02T07:06:19.681Z,1003.94
2018-04-02T07:07:19.671Z,1003.96
2018-04-02T07:08:19.669Z,1003.95
2018-04-02T07:09:19.653Z,1004.00
2018-04-02T07:10:19.644Z,1003.96
2018-04-02T07:11:19.634Z,1003.98
2018-04-02T07:12:19.626Z,1003.95
2018-04-02T07:13:19.614Z,1003.96
2018-04-02T07:14:19.605Z,1003.92
2018-04-02T07:15:19.600Z,1003.90
2018-04-02T07:16:19.590Z,1003.93
2018-04-02T07:17:19.597Z,1003.90
2018-04-02T07:18:19.569Z,1003.88
2018-04-02T07:19:19.563Z,1003.93
2018-04-02T07:20:19.551Z,1003.92
2018-04-02T07:21:19.539Z,1003.95
2018-04-02T07:22:19.535Z,1003.90
2018-04-02T07:23:19.527Z,1003.92
2018-04-02T07:24:19.517Z,1003.88
2018-04-02T07:25:19.507Z,1003.87
2018-04-02T07:26:19.500Z,1003.85
2018-04-02T07:27:19.484Z,1003.85
2018-04-02T07:28:19.481Z,1003.84
2018-04-02T07:29:19.467Z,1003.85
2018-04-02T07:30:19.462Z,1003.83
2018-04-02T07:31:19.451Z,1003.83
2018-04-02T07:32:19.443Z,1003.84
2018-04-02T07:33:19.433Z,1003.88
2018-04-02T07:34:19.418Z,1003.89
2018-04-02T07:35:19.410Z,1003.91
2018-04-02T07:36:19.403Z,1003.90
2018-04-02T07:37:19.447Z,1003.86
2018-04-02T07:38:19.387Z,1003.84
2018-04-02T07:39:19.382Z,1003.79
2018-04-02T07:40:19.366Z,1003.76
2018-04-02T07:41:19.356Z,1003.78
2018-04-02T07:42:19.346Z,1003.72
2018-04-02T07:43:19.341Z,1003.72
2018-04-02T07:44:19.336Z,1003.69
2018-04-02T07:45:19.329Z,1003.70
2018-04-02T07:46:19.318Z,1003.68
2018-04-02T07:47:19.305Z,1003.69
2018-04-02T07:48:19.294Z,1003.65
2018-04-02T07:49:19.291Z,1003.65
2018-04-02T07:50:19.283Z,1003.62
2018-04-02T07:51:19.273Z,1003.65
2018-04-02T07:52:19.271Z,1003.65
2018-04-02T07:53:19.256Z,1003.65
2018-04-02T07:54:19.247Z,1003.66
2018-04-02T07:55:19.235Z,1003.72
2018-04-02T07:56:19.235Z,1003.72
2018-04-02T07:57:19.226Z,1003.71
2018-04-02T07:58:19.222Z,1003.75
2018-04-02T07:59:19.211Z,1003.77
2018-04-02T08:00:19.202Z,1003.73
2018-04-02T08:01:19.193Z,1003.73
2018-04-02T08:02:19.183Z,1003.70
2018-04-02T08:03:19.180Z,1003.71
2018-04-02T08:04:19.219Z,1003.70
2018-04-02T08:05:19.163Z,1003.66
2018-04-02T08:06:19.157Z,1003.68
2018-04-02T08:07:19.150Z,1003.65
2018-04-02T08:08:19.139Z,1003.65
2018-04-02T08:09:19.133Z,1003.64
2018-04-02T08:10:19.129Z,1003.60
2018-04-02T08:11:19.116Z,1003.61
2018-04-02T08:12:19.112Z,1003.62
2018-04-02T08:13:19.105Z,1003.62
2018-04-02T08:14:19.094Z,1003.63
2018-04-02T08:15:19.088Z,1003.55
2018-04-02T08:16:19.091Z,1003.53
2018-04-02T08:17:19.076Z,1003.56
2018-04-02T08:18:19.068Z,1003.56
2018-04-02T08:19:19.064Z,1003.54
2018-04-02T08:20:19.060Z,1003.50
2018-04-02T08:21:19.066Z,1003.50
2018-04-02T08:22:19.038Z,1003.48
2018-04-02T08:23:19.035Z,1003.46
2018-04-02T08:24:19.031Z,1003.50
2018-04-02T08:25:19.062Z,1003.49
2018-04-02T08:26:19.015Z,1003.46
2018-04-02T08:27:19.012Z,1003.49
2018-04-02T08:28:19.053Z,1003.44
2018-04-02T08:29:18.996Z,1003.50
2018-04-02T08:30:18.989Z,1003.46
2018-04-02T08:31:18.983Z,1003.47
2018-04-02T08:32:18.975Z,1003.52
2018-04-02T08:33:18.972Z,1003.42
2018-04-02T08:34:18.967Z,1003.44
2018-04-02T08:35:18.959Z,1003.43
2018-04-02T08:36:18.951Z,1003.41
2018-04-02T08:37:18.945Z,1003.33
2018-04-02T08:38:18.944Z,1003.31
2018-04-02T08:39:18.937Z,1003.36
2018-04-02T08:40:18.937Z,1003.33
2018-04-02T08:41:18.925Z,1003.37
2018-04-02T08:42:18.923Z,1003.34
2018-04-02T08:43:18.912Z,1003.36
2018-04-02T08:44:18.946Z,1003.33
2018-04-02T08:45:18.943Z,1003.34
2018-04-02T08:46:18.900Z,1003.33
2018-04-02T08:47:18.896Z,1003.32
2018-04-02T08:48:18.887Z,1003.30
2018-04-02T08:49:18.881Z,1003.27
2018-04-02T08:50:18.880Z,1003.32
2018-04-02T08:51:18.874Z,1003.34
2018-04-02T08:52:18.869Z,1003.33
2018-04-02T08:53:18.863Z,1003.28
2018-04-02T08:54:18.859Z,1003.27
2018-04-02T08:55:18.855Z,1003.29
2018-04-02T08:56:18.846Z,1003.29
2018-04-02T08:57:18.839Z,1003.25
2018-04-02T08:58:18.837Z,1003.19
2018-04-02T08:59:18.833Z,1003.19
2018-04-02T09:00:18.829Z,1003.13
2018-04-02T09:01:18.819Z,1003.16
2018-04-02T09:02:18.815Z,1003.17
2018-04-02T09:03:18.811Z,1003.15
2018-04-02T09:04:18.805Z,1003.13
2018-04-02T09:05:18.811Z,1003.12
2018-04-02T09:06:18.797Z,1003.09
2018-04-02T09:07:18.786Z,1003.09
2018-04-02T09:08:18.781Z,1003.07
2018-04-02T09:09:18.810Z,1003.03
2018-04-02T09:10:18.773Z,1003.07
2018-04-02T09:11:18.769Z,1002.98
2018-04-02T09:12:18.819Z,1003.01
2018-04-02T09:13:18.770Z,1003.02
2018-04-02T09:14:18.747Z,1003.01
2018-04-02T09:15:18.742Z,1002.99
2018-04-02T09:16:18.740Z,1003.00
2018-04-02T09:17:18.736Z,1002.95
2018-04-02T09:18:18.728Z,1002.95
2018-04-02T09:19:18.723Z,1002.93
2018-04-02T09:20:18.719Z,1002.88
2018-04-02T09:21:18.711Z,1002.85
2018-04-02T09:22:18.707Z,1002.79
2018-04-02T09:23:18.706Z,1002.78
2018-04-02T09:24:18.695Z,1002.77
2018-04-02T09:25:18.690Z,1002.77
2018-04-02T09:26:18.690Z,1002.80
2018-04-02T09:27:18.678Z,1002.78
2018-04-02T09:28:18.677Z,1002.75
2018-04-02T09:29:18.667Z,1002.73
2018-04-02T09:30:18.678Z,1002.71
2018-04-02T09:31:18.664Z,1002.66
2018-04-02T09:32:18.654Z,1002.64
2018-04-02T09:33:18.648Z,1002.65
2018-04-02T09:34:18.645Z,1002.58
2018-04-02T09:35:18.641Z,1002.60
2018-04-02T09:36:18.636Z,1002.61
2018-04-02T09:37:18.633Z,1002.60
2018-04-02T09:38:18.627Z,1002.58
2018-04-02T09:39:18.622Z,1002.59
2018-04-02T09:40:18.618Z,1002.58
2018-04-02T09:41:18.610Z,1002.57
2018-04-02T09:42:18.608Z,1002.54
2018-04-02T09:43:18.604Z,1002.57
2018-04-02T09:44:18.598Z,1002.56
2018-04-02T09:45:18.598Z,1002.57
2018-04-02T09:46:18.594Z,1002.56
2018-04-02T09:47:18.583Z,1002.49
2018-04-02T09:48:18.580Z,1002.49
2018-04-02T09:49:18.575Z,1002.45
2018-04-02T09:50:18.573Z,1002.41
2018-04-02T09:51:18.573Z,1002.43
2018-04-02T09:52:18.560Z,1002.40
2018-04-02T09:53:18.562Z,1002.40
2018-04-02T09:54:18.609Z,1002.37
2018-04-02T09:55:18.550Z,1002.37
2018-04-02T09:56:18.547Z,1002.38
2018-04-02T09:57:18.541Z,1002.45
2018-04-02T09:58:18.538Z,1002.37
2018-04-02T09:59:18.570Z,1002.40
2018-04-02T10:00:18.528Z,1002.39
2018-04-02T10:01:18.522Z,1002.41
2018-04-02T10:02:18.518Z,1002.37
2018-04-02T10:03:18.517Z,1002.35
2018-04-02T10:04:18.515Z,1002.34
2018-04-02T10:05:18.507Z,1002.27
2018-04-02T10:06:18.502Z,1002.29
2018-04-02T10:07:18.499Z,1002.24
2018-04-02T10:08:18.486Z,1002.20
2018-04-02T10:09:18.483Z,1002.22
2018-04-02T10:10:18.557Z,1002.21
2018-04-02T10:11:18.474Z,1002.14
2018-04-02T10:12:18.470Z,1002.16
2018-04-02T10:13:18.463Z,1002.11
2018-04-02T10:14:18.458Z,1002.09
2018-04-02T10:15:18.451Z,1002.11
2018-04-02T10:16:18.448Z,1002.06
2018-04-02T10:17:18.445Z,1002.05
2018-04-02T10:18:18.440Z,1002.02
2018-04-02T10:19:18.434Z,1002.04
2018-04-02T10:20:19.346Z,1002.06
2018-04-02T10:21:18.420Z,1002.06
2018-04-02T10:22:18.418Z,1002.05
2018-04-02T10:23:18.414Z,1002.00
2018-04-02T10:24:18.408Z,1001.97
2018-04-02T10:25:18.401Z,1001.94
2018-04-02T10:26:18.398Z,1001.85
2018-04-02T10:27:18.390Z,1001.92
2018-04-02T10:28:18.387Z,1001.93
2018-04-02T10:29:18.456Z,1001.97
2018-04-02T10:30:18.380Z,1001.91
2018-04-02T10:31:18.372Z,1001.82
2018-04-02T10:32:18.368Z,1001.86
2018-04-02T10:33:18.368Z,1001.83
2018-04-02T10:34:18.354Z,1001.83
2018-04-02T10:35:18.353Z,1001.73
2018-04-02T10:36:18.347Z,1001.73
2018-04-02T10:37:18.354Z,1001.76
2018-04-02T10:38:18.340Z,1001.72
2018-04-02T10:39:18.337Z,1001.71
2018-04-02T10:40:18.327Z,1001.68
2018-04-02T10:41:18.327Z,1001.61
2018-04-02T10:42:18.321Z,1001.77
2018-04-02T10:43:18.323Z,1001.67
2018-04-02T10:44:18.316Z,1001.68
2018-04-02T10:45:18.310Z,1001.78
2018-04-02T10:46:18.304Z,1001.71
2018-04-02T10:47:18.298Z,1001.66
2018-04-02T10:48:18.296Z,1001.75
2018-04-02T10:49:18.293Z,1001.62
2018-04-02T10:50:18.291Z,1001.66
2018-04-02T10:51:18.293Z,1001.63
2018-04-02T10:52:18.285Z,1001.60
2018-04-02T10:53:18.278Z,1001.62
2018-04-02T10:54:18.275Z,1001.60
2018-04-02T10:55:18.272Z,1001.56
2018-04-02T10:56:18.269Z,1001.54
2018-04-02T10:57:18.270Z,1001.56
2018-04-02T10:58:18.267Z,1001.55
2018-04-02T10:59:18.267Z,1001.51
2018-04-02T11:00:18.262Z,1001.49
2018-04-02T11:01:18.260Z,1001.42
2018-04-02T11:02:18.255Z,1001.51
2018-04-02T11:03:18.260Z,1001.41
2018-04-02T11:04:18.260Z,1001.39
2018-04-02T11:05:18.257Z,1001.31
2018-04-02T11:06:18.351Z,1001.26
2018-04-02T11:07:18.250Z,1001.26
2018-04-02T11:08:18.250Z,1001.30
2018-04-02T11:09:18.250Z,1001.27
2018-04-02T11:10:18.250Z,1001.24
2018-04-02T11:11:18.248Z,1001.21
2018-04-02T11:12:18.249Z,1001.17
2018-04-02T11:13:18.254Z,1001.12
2018-04-02T11:14:18.246Z,1001.09
2018-04-02T11:15:18.247Z,1001.04
2018-04-02T11:16:18.251Z,1001.09
2018-04-02T11:17:18.246Z,1001.01
2018-04-02T11:18:18.247Z,1001.04
2018-04-02T11:19:18.245Z,1000.99
2018-04-02T11:20:18.244Z,1001.03
2018-04-02T11:21:18.239Z,1000.99
2018-04-02T11:22:18.245Z,1000.84
2018-04-02T11:23:18.244Z,1000.88
2018-04-02T11:24:18.244Z,1000.89
2018-04-02T11:25:18.243Z,1000.85
2018-04-02T11:26:18.242Z,1000.84
2018-04-02T11:27:18.232Z,1000.74
2018-04-02T11:28:18.236Z,1000.76
2018-04-02T11:29:18.233Z,1000.83
2018-04-02T11:30:18.232Z,1000.78
2018-04-02T11:31:18.226Z,1000.72
2018-04-02T11:32:18.226Z,1000.72
2018-04-02T11:33:18.220Z,1000.72
2018-04-02T11:34:18.217Z,1000.68
2018-04-02T11:35:18.216Z,1000.68
2018-04-02T11:36:18.215Z,1000.72
2018-04-02T11:37:18.211Z,1000.69
2018-04-02T11:38:18.209Z,1000.66
2018-04-02T11:39:18.202Z,1000.67
2018-04-02T11:40:18.198Z,1000.62
2018-04-02T11:41:18.194Z,1000.59
2018-04-02T11:42:18.199Z,1000.61
2018-04-02T11:43:18.187Z,1000.64
2018-04-02T11:44:18.190Z,1000.65
2018-04-02T11:45:18.178Z,1000.65
2018-04-02T11:46:18.177Z,1000.63
2018-04-02T11:47:18.180Z,1000.56
2018-04-02T11:48:18.168Z,1000.58
2018-04-02T11:49:18.160Z,1000.54
2018-04-02T11:50:18.158Z,1000.57
2018-04-02T11:51:18.152Z,1000.56
2018-04-02T11:52:18.146Z,1000.51
2018-04-02T11:53:18.148Z,1000.57
2018-04-02T11:54:18.138Z,1000.48
2018-04-02T11:55:18.136Z,1000.47
2018-04-02T11:56:18.131Z,1000.45
2018-04-02T11:57:18.123Z,1000.53
2018-04-02T11:58:18.117Z,1000.45
2018-04-02T11:59:18.113Z,1000.43
2018-04-02T12:00:18.107Z,1000.44
2018-04-02T12:01:18.150Z,1000.38
2018-04-02T12:02:18.098Z,1000.38
2018-04-02T12:03:18.093Z,1000.36
2018-04-02T12:04:18.084Z,1000.34
2018-04-02T12:05:18.082Z,1000.35